createdAt,value
2022-10-21T00:01:50.867Z,96354.34
2022-10-21T00:04:17.475Z,96323.97
2022-10-21T00:06:44.117Z,96354.66
2022-10-21T00:09:10.756Z,96344.91
2022-10-21T00:11:37.472Z,96339.31
2022-10-21T00:14:04.197Z,96322.44
2022-10-21T00:16:30.838Z,96298.56
2022-10-21T00:18:57.418Z,96276.09
2022-10-21T00:21:24.043Z,96322.44
2022-10-21T00:23:50.780Z,96331.09
2022-10-21T00:26:18.417Z,96286.78
2022-10-21T00:28:45.050Z,96229.81
2022-10-21T00:31:13.764Z,96319.31
2022-10-21T00:33:40.817Z,96339.31
2022-10-21T00:36:08.357Z,96301.97
2022-10-21T00:38:35.883Z,96299.00
2022-10-21T00:41:02.896Z,96282.94
2022-10-21T00:43:30.083Z,96229.03
2022-10-21T00:46:03.691Z,96288.34
2022-10-21T00:48:42.122Z,96279.19
2022-10-21T00:51:16.616Z,96290.34
2022-10-21T00:53:47.822Z,96233.53
2022-10-21T00:56:18.236Z,96274.09
2022-10-21T00:58:48.010Z,96185.06
2022-10-21T01:01:19.120Z,96281.66
2022-10-21T01:03:49.124Z,96258.59
2022-10-21T01:06:18.712Z,96275.31
2022-10-21T01:08:45.363Z,96232.91
2022-10-21T01:11:18.010Z,96252.88
2022-10-21T01:13:53.812Z,96248.72
2022-10-21T01:16:36.701Z,96219.91
2022-10-21T01:19:28.273Z,96226.88
2022-10-21T01:22:32.599Z,96131.72
2022-10-21T01:25:27.767Z,96218.81
2022-10-21T01:28:00.317Z,96222.25
2022-10-21T01:30:44.245Z,96214.47
2022-10-21T01:33:41.578Z,96218.22
2022-10-21T01:36:20.871Z,96212.94
2022-10-21T01:39:19.916Z,96191.91
2022-10-21T01:41:54.818Z,96154.00
2022-10-21T01:44:27.786Z,96166.81
2022-10-21T01:46:59.169Z,96164.19
2022-10-21T01:49:25.675Z,96151.50
2022-10-21T01:51:54.542Z,96147.00
2022-10-21T01:54:26.368Z,96151.34
2022-10-21T01:56:54.187Z,96147.47
2022-10-21T01:59:24.640Z,96078.94
2022-10-21T02:01:52.751Z,96158.78
2022-10-21T02:04:20.392Z,96148.41
2022-10-21T02:06:47.076Z,96160.31
2022-10-21T02:09:13.814Z,96128.13
2022-10-21T02:11:43.526Z,96117.94
2022-10-21T02:14:18.411Z,96154.28
2022-10-21T02:16:46.535Z,96129.84
2022-10-21T02:19:18.739Z,96182.16
2022-10-21T02:21:47.882Z,96183.53
2022-10-21T02:24:25.334Z,96175.66
2022-10-21T02:26:52.100Z,96089.78
2022-10-21T02:29:26.808Z,96092.72
2022-10-21T02:32:34.542Z,96132.47
2022-10-21T02:35:36.602Z,96148.25
2022-10-21T02:38:41.057Z,96153.97
2022-10-21T02:41:10.714Z,96153.97
2022-10-21T02:43:48.838Z,96141.13
2022-10-21T02:46:15.922Z,96155.38
2022-10-21T02:48:45.470Z,96137.72
2022-10-21T02:51:12.655Z,96161.88
2022-10-21T02:53:39.239Z,96160.31
2022-10-21T02:56:06.635Z,96171.16
2022-10-21T02:58:33.263Z,96146.22
2022-10-21T03:01:00.278Z,96180.59
2022-10-21T03:03:26.984Z,96133.84
2022-10-21T03:05:53.605Z,96176.84
2022-10-21T03:08:20.215Z,96183.81
2022-10-21T03:10:52.955Z,96154.88
2022-10-21T03:13:20.965Z,96171.41
2022-10-21T03:15:48.877Z,96172.19
2022-10-21T03:18:15.621Z,96172.53
2022-10-21T03:20:42.326Z,96163.84
2022-10-21T03:23:08.949Z,96164.47
2022-10-21T03:25:35.934Z,96114.78
2022-10-21T03:28:02.592Z,96140.94
2022-10-21T03:30:29.269Z,96136.63
2022-10-21T03:32:55.871Z,96123.28
2022-10-21T03:35:22.681Z,96076.88
2022-10-21T03:37:49.255Z,96151.91
2022-10-21T03:40:15.904Z,96181.34
2022-10-21T03:42:42.495Z,96144.97
2022-10-21T03:45:09.619Z,96133.34
2022-10-21T03:47:36.279Z,96141.88
2022-10-21T03:50:05.413Z,96171.28
2022-10-21T03:52:34.254Z,96139.53
2022-10-21T03:55:00.860Z,96085.81
2022-10-21T03:57:27.433Z,96067.13
2022-10-21T03:59:54.019Z,96059.97
2022-10-21T04:02:20.643Z,96126.97
2022-10-21T04:04:47.243Z,96138.91
2022-10-21T04:07:13.878Z,96118.97
2022-10-21T04:09:40.443Z,96087.53
2022-10-21T04:12:07.058Z,96048.38
2022-10-21T04:14:33.689Z,96067.41
2022-10-21T04:17:06.890Z,96105.34
2022-10-21T04:19:34.032Z,96122.09
2022-10-21T04:22:00.686Z,96075.38
2022-10-21T04:24:27.295Z,96021.84
2022-10-21T04:26:53.893Z,96112.97
2022-10-21T04:29:20.597Z,96071.97
2022-10-21T04:31:50.009Z,96093.63
2022-10-21T04:34:16.738Z,96092.25
2022-10-21T04:36:43.363Z,96091.94
2022-10-21T04:39:10.034Z,96041.97
2022-10-21T04:41:36.662Z,96075.53
2022-10-21T04:44:03.739Z,96086.22
2022-10-21T04:46:30.329Z,96072.59
2022-10-21T04:48:56.927Z,96055.13
2022-10-21T04:51:23.584Z,96082.50
2022-10-21T04:53:50.248Z,96086.03
2022-10-21T04:56:16.893Z,96039.81
2022-10-21T04:58:43.493Z,96036.72
2022-10-21T05:01:10.234Z,95993.91
2022-10-21T05:03:36.900Z,96006.88
2022-10-21T05:06:03.717Z,96046.31
2022-10-21T05:08:30.409Z,96039.06
2022-10-21T05:11:01.380Z,95991.72
2022-10-21T05:13:31.548Z,96041.38
2022-10-21T05:15:59.680Z,95955.88
2022-10-21T05:18:26.514Z,96046.78
2022-10-21T05:20:55.127Z,95963.63
2022-10-21T05:23:22.426Z,96025.44
2022-10-21T05:25:51.511Z,95990.22
2022-10-21T05:28:18.985Z,95991.47
2022-10-21T05:30:45.703Z,96006.75
2022-10-21T05:33:12.509Z,95981.72
2022-10-21T05:35:39.249Z,95993.03
2022-10-21T05:38:06.277Z,96023.00
2022-10-21T05:40:33.604Z,96018.53
2022-10-21T05:43:00.258Z,95965.69
2022-10-21T05:45:27.134Z,95994.41
2022-10-21T05:47:53.697Z,95980.81
2022-10-21T05:50:20.421Z,96017.59
2022-10-21T05:52:46.980Z,95950.97
2022-10-21T05:55:13.577Z,95964.44
2022-10-21T05:57:40.451Z,95980.81
2022-10-21T06:00:08.136Z,96040.31
2022-10-21T06:02:35.667Z,96024.06
2022-10-21T06:05:02.504Z,96039.22
2022-10-21T06:07:29.181Z,96004.75
2022-10-21T06:09:56.246Z,96051.25
2022-10-21T06:12:22.925Z,96036.59
2022-10-21T06:14:49.568Z,96029.03
2022-10-21T06:17:16.291Z,96070.91
2022-10-21T06:19:45.978Z,96013.09
2022-10-21T06:22:15.753Z,96002.13
2022-10-21T06:24:42.324Z,95972.47
2022-10-21T06:27:09.303Z,96037.06
2022-10-21T06:29:35.888Z,96034.88
2022-10-21T06:32:02.651Z,95945.75
2022-10-21T06:34:29.260Z,95984.69
2022-10-21T06:36:55.908Z,95986.03
2022-10-21T06:39:22.527Z,96021.72
2022-10-21T06:41:49.094Z,96023.84
2022-10-21T06:44:32.523Z,96033.47
2022-10-21T06:46:59.116Z,96017.06
2022-10-21T06:49:25.816Z,96042.09
2022-10-21T06:51:52.581Z,95937.84
2022-10-21T06:54:19.250Z,95952.66
2022-10-21T06:56:45.806Z,96044.69
2022-10-21T06:59:12.475Z,96031.75
2022-10-21T07:01:59.202Z,96061.06
2022-10-21T07:04:25.722Z,95993.25
2022-10-21T07:06:52.336Z,96060.31
2022-10-21T07:09:19.022Z,96016.28
2022-10-21T07:11:45.712Z,95986.16
2022-10-21T07:14:12.631Z,96031.75
2022-10-21T07:16:39.427Z,96004.34
2022-10-21T07:19:06.683Z,96010.53
2022-10-21T07:21:33.378Z,96046.31
2022-10-21T07:24:00.928Z,95968.81
2022-10-21T07:26:31.388Z,96077.38
2022-10-21T07:29:00.272Z,96039.03
2022-10-21T07:31:28.656Z,96067.56
2022-10-21T07:33:56.092Z,96031.72
2022-10-21T07:36:26.538Z,96075.66
2022-10-21T07:38:55.540Z,96079.31
2022-10-21T07:41:34.178Z,96040.19
2022-10-21T07:44:01.947Z,96039.47
2022-10-21T07:46:28.536Z,96039.91
2022-10-21T07:48:55.232Z,95983.66
2022-10-21T07:51:28.569Z,96071.63
2022-10-21T07:53:58.911Z,96066.97
2022-10-21T07:56:30.803Z,96073.94
2022-10-21T07:58:58.026Z,96010.41
2022-10-21T08:01:25.125Z,96079.38
2022-10-21T08:03:53.374Z,96055.16
2022-10-21T08:06:20.071Z,96065.38
2022-10-21T08:08:47.084Z,96074.84
2022-10-21T08:11:43.202Z,96070.22
2022-10-21T08:14:10.407Z,96001.78
2022-10-21T08:16:37.696Z,96065.06
2022-10-21T08:19:05.369Z,96058.25
2022-10-21T08:21:32.096Z,96008.81
2022-10-21T08:24:00.929Z,96036.19
2022-10-21T08:26:27.570Z,95981.31
2022-10-21T08:28:54.259Z,96013.56
2022-10-21T08:31:22.329Z,95968.59
2022-10-21T08:33:50.001Z,96005.34
2022-10-21T08:36:20.157Z,96023.03
2022-10-21T08:38:47.707Z,95999.53
2022-10-21T08:41:29.447Z,96024.81
2022-10-21T08:44:10.669Z,96027.88
2022-10-21T08:46:53.634Z,96009.66
2022-10-21T08:49:29.999Z,96004.38
2022-10-21T08:52:03.499Z,96015.81
2022-10-21T08:55:13.907Z,96013.97
2022-10-21T08:57:40.766Z,96044.75
2022-10-21T09:00:20.393Z,95991.84
2022-10-21T09:03:03.051Z,96070.75
2022-10-21T09:05:52.890Z,96069.50
2022-10-21T09:08:43.619Z,96076.75
2022-10-21T09:11:19.654Z,96073.25
2022-10-21T09:14:21.588Z,96081.75
2022-10-21T09:17:25.898Z,96078.97
2022-10-21T09:20:02.944Z,96088.34
2022-10-21T09:22:54.877Z,96086.53
2022-10-21T09:25:38.859Z,96094.78
2022-10-21T09:28:14.750Z,96083.78
2022-10-21T09:30:42.783Z,96079.94
2022-10-21T09:33:15.574Z,96075.91
2022-10-21T09:35:54.682Z,96068.69
2022-10-21T09:38:30.036Z,96067.25
2022-10-21T09:41:03.658Z,96068.06
2022-10-21T09:43:30.480Z,96064.84
2022-10-21T09:45:58.015Z,96061.75
2022-10-21T09:49:16.259Z,96055.63
2022-10-21T09:51:37.709Z,96012.75
2022-10-21T09:54:25.084Z,96050.31
2022-10-21T09:57:04.262Z,96045.22
2022-10-21T09:59:33.516Z,96047.13
2022-10-21T10:02:15.710Z,96046.59
2022-10-21T10:04:42.395Z,96019.59
2022-10-21T10:07:21.250Z,96057.19
2022-10-21T10:09:48.615Z,96043.88
2022-10-21T10:12:21.527Z,96027.22
2022-10-21T10:14:48.542Z,96053.91
2022-10-21T10:17:24.112Z,96061.38
2022-10-21T10:20:06.034Z,96058.19
2022-10-21T10:22:37.725Z,96055.88
2022-10-21T10:25:14.662Z,96021.91
2022-10-21T10:27:53.851Z,96062.13
2022-10-21T10:30:23.400Z,96038.41
2022-10-21T10:32:52.481Z,95954.97
2022-10-21T10:35:26.023Z,96041.84
2022-10-21T10:37:54.109Z,96041.94
2022-10-21T10:40:25.067Z,96018.50
2022-10-21T10:43:01.075Z,96062.25
2022-10-21T10:45:27.936Z,95998.47
2022-10-21T10:47:58.648Z,96029.13
2022-10-21T10:50:37.559Z,96071.06
2022-10-21T10:53:24.063Z,96080.53
2022-10-21T10:56:23.011Z,96089.78
2022-10-21T10:59:17.427Z,96080.97
2022-10-21T11:01:54.142Z,96075.34
2022-10-21T11:04:32.750Z,96072.50
2022-10-21T11:07:12.228Z,96081.09
2022-10-21T11:09:39.322Z,96075.56
2022-10-21T11:12:20.356Z,96062.44
2022-10-21T11:14:51.684Z,96040.88
2022-10-21T11:17:21.527Z,95987.03
2022-10-21T11:20:06.226Z,95994.00
2022-10-21T11:22:38.811Z,95996.50
2022-10-21T11:25:24.171Z,95978.97
2022-10-21T11:28:18.934Z,96001.88
2022-10-21T11:31:13.392Z,95992.28
2022-10-21T11:33:55.323Z,95970.50
2022-10-21T11:36:37.490Z,95974.59
2022-10-21T11:39:33.249Z,95994.31
2022-10-21T11:42:02.902Z,95995.78
2022-10-21T11:44:53.503Z,95990.16
2022-10-21T11:47:52.646Z,95974.22
2022-10-21T11:50:46.135Z,95842.84
2022-10-21T11:53:26.170Z,95899.47
2022-10-21T11:56:19.735Z,95920.41
2022-10-21T11:58:46.252Z,95908.63
2022-10-21T12:01:12.783Z,95915.16
2022-10-21T12:04:01.405Z,95941.75
2022-10-21T12:06:38.584Z,95938.56
2022-10-21T12:09:14.711Z,95918.69
2022-10-21T12:12:15.969Z,95950.47
2022-10-21T12:14:56.335Z,95951.31
2022-10-21T12:17:24.591Z,95990.69
2022-10-21T12:20:21.318Z,96048.09
2022-10-21T12:22:52.424Z,95936.75
2022-10-21T12:25:32.957Z,96037.25
2022-10-21T12:28:22.923Z,96015.44
2022-10-21T12:31:01.398Z,96019.88
2022-10-21T12:33:37.099Z,96007.66
2022-10-21T12:36:23.537Z,95977.41
2022-10-21T12:38:55.681Z,95976.66
2022-10-21T12:41:35.921Z,95979.41
2022-10-21T12:44:05.413Z,95963.00
2022-10-21T12:46:47.389Z,95907.13
2022-10-21T12:49:35.790Z,95961.47
2022-10-21T12:52:02.365Z,95976.09
2022-10-21T12:54:33.952Z,95948.50
2022-10-21T12:57:07.978Z,95932.72
2022-10-21T12:59:34.594Z,95984.09
2022-10-21T13:02:10.144Z,95974.44
2022-10-21T13:04:36.749Z,95970.22
2022-10-21T13:07:16.785Z,95959.47
2022-10-21T13:10:06.029Z,95972.97
2022-10-21T13:12:33.473Z,95861.31
2022-10-21T13:15:01.681Z,95973.69
2022-10-21T13:17:48.650Z,95958.03
2022-10-21T13:20:15.213Z,95983.00
2022-10-21T13:22:43.775Z,95978.56
2022-10-21T13:25:16.581Z,95979.88
2022-10-21T13:27:52.259Z,95893.16
2022-10-21T13:30:31.514Z,96005.41
2022-10-21T13:33:02.625Z,96008.50
2022-10-21T13:35:44.818Z,95989.22
2022-10-21T13:38:31.823Z,96041.38
2022-10-21T13:41:00.365Z,96040.06
2022-10-21T13:43:34.161Z,96006.28
2022-10-21T13:46:14.221Z,96028.50
2022-10-21T13:48:44.363Z,95989.09
2022-10-21T13:51:27.159Z,95979.78
2022-10-21T13:53:58.109Z,95993.41
2022-10-21T13:56:33.694Z,95978.97
2022-10-21T13:59:01.630Z,95947.25
2022-10-21T14:01:46.475Z,96020.94
2022-10-21T14:04:19.667Z,96038.97
2022-10-21T14:07:06.396Z,96053.97
2022-10-21T14:09:42.855Z,96051.63
2022-10-21T14:12:34.484Z,96021.34
2022-10-21T14:15:18.060Z,96053.53
2022-10-21T14:17:52.856Z,95982.13
2022-10-21T14:20:33.981Z,96015.13
2022-10-21T14:23:06.457Z,96018.09
2022-10-21T14:25:33.414Z,96022.63
2022-10-21T14:28:01.367Z,95989.94
2022-10-21T14:30:32.294Z,96011.97
2022-10-21T14:33:02.573Z,96024.88
2022-10-21T14:35:30.384Z,95944.28
2022-10-21T14:37:59.574Z,96017.56
2022-10-21T14:40:40.344Z,96013.78
2022-10-21T14:43:38.994Z,96018.75
2022-10-21T14:46:07.953Z,96022.25
2022-10-21T14:48:37.886Z,96017.75
2022-10-21T14:51:17.668Z,95985.06
2022-10-21T14:53:58.660Z,96023.81
2022-10-21T14:56:34.291Z,96025.50
2022-10-21T14:59:14.871Z,96011.69
2022-10-21T15:01:43.196Z,95971.28
2022-10-21T15:04:52.096Z,96012.69
2022-10-21T15:09:57.651Z,96014.06
2022-10-21T15:12:24.389Z,95974.72
2022-10-21T15:14:51.030Z,95993.25
2022-10-21T15:17:17.729Z,95997.97
2022-10-21T15:19:50.467Z,96026.34
2022-10-21T15:22:27.539Z,96032.84
2022-10-21T15:24:59.857Z,96009.75
2022-10-21T15:27:42.521Z,96013.69
2022-10-21T15:30:19.872Z,95974.06
2022-10-21T15:32:47.512Z,95971.63
2022-10-21T15:35:20.694Z,96013.69
2022-10-21T15:37:50.809Z,95956.69
2022-10-21T15:40:18.563Z,95958.09
2022-10-21T15:42:46.034Z,95943.34
2022-10-21T15:45:22.934Z,95960.91
2022-10-21T15:47:54.055Z,96004.38
2022-10-21T15:50:23.745Z,96003.06
2022-10-21T15:52:50.669Z,95982.19
2022-10-21T15:55:17.327Z,95973.69
2022-10-21T15:57:44.605Z,95970.97
2022-10-21T16:00:17.729Z,95999.03
2022-10-21T16:02:45.222Z,95987.78
2022-10-21T16:05:11.906Z,95983.13
2022-10-21T16:07:38.695Z,95996.16
2022-10-21T16:10:22.307Z,96005.31
2022-10-21T16:12:50.103Z,96002.59
2022-10-21T16:15:18.245Z,95974.06
2022-10-21T16:17:47.630Z,96000.03
2022-10-21T16:20:17.201Z,95972.38
2022-10-21T16:22:43.995Z,95972.97
2022-10-21T16:25:11.299Z,96017.06
2022-10-21T16:27:51.182Z,95997.00
2022-10-21T16:30:24.782Z,95978.81
2022-10-21T16:32:51.913Z,95999.06
2022-10-21T16:35:21.003Z,95994.63
2022-10-21T16:37:48.823Z,96001.78
2022-10-21T16:40:21.612Z,95996.69
2022-10-21T16:42:49.722Z,95986.75
2022-10-21T16:45:17.274Z,95969.66
2022-10-21T16:47:48.265Z,95990.50
2022-10-21T16:50:19.486Z,95980.44
2022-10-21T16:52:46.278Z,95956.06
2022-10-21T16:55:14.011Z,95998.47
2022-10-21T16:57:40.901Z,95963.41
2022-10-21T17:00:08.780Z,95998.72
2022-10-21T17:02:40.277Z,96021.97
2022-10-21T17:05:08.632Z,95988.03
2022-10-21T17:07:35.350Z,95982.53
2022-10-21T17:10:02.199Z,95982.53
2022-10-21T17:12:32.566Z,96005.38
2022-10-21T17:15:00.449Z,96002.47
2022-10-21T17:17:27.378Z,95988.88
2022-10-21T17:19:54.239Z,95978.44
2022-10-21T17:22:20.889Z,95998.44
2022-10-21T17:24:49.090Z,96012.78
2022-10-21T17:27:19.524Z,95953.91
2022-10-21T17:29:46.742Z,95995.28
2022-10-21T17:32:13.480Z,96006.38
2022-10-21T17:34:41.114Z,96012.84
2022-10-21T17:37:09.750Z,95985.50
2022-10-21T17:39:36.521Z,95977.72
2022-10-21T17:42:03.911Z,95998.69
2022-10-21T17:44:30.706Z,96000.09
2022-10-21T17:46:57.467Z,95963.44
2022-10-21T17:49:26.195Z,96009.34
2022-10-21T17:51:52.935Z,96028.31
2022-10-21T17:54:22.899Z,96032.75
2022-10-21T17:56:53.472Z,95993.03
2022-10-21T17:59:20.052Z,96007.78
2022-10-21T18:01:46.837Z,95982.50
2022-10-21T18:04:14.109Z,95986.47
2022-10-21T18:06:40.952Z,96029.31
2022-10-21T18:09:08.726Z,95994.06
2022-10-21T18:11:36.830Z,95965.97
2022-10-21T18:14:04.423Z,95994.75
2022-10-21T18:16:32.236Z,96015.53
2022-10-21T18:19:01.957Z,96017.16
2022-10-21T18:21:30.921Z,96014.84
2022-10-21T18:23:57.978Z,96003.22
2022-10-21T18:26:27.561Z,96014.00
2022-10-21T18:29:01.462Z,96006.06
2022-10-21T18:31:30.354Z,96002.13
2022-10-21T18:33:58.631Z,95985.41
2022-10-21T18:36:25.807Z,95989.50
2022-10-21T18:38:52.998Z,96035.75
2022-10-21T18:41:21.369Z,96019.59
2022-10-21T18:43:51.551Z,96008.13
2022-10-21T18:46:19.030Z,95983.41
2022-10-21T18:48:45.693Z,96007.09
2022-10-21T18:51:15.566Z,95994.41
2022-10-21T18:53:42.871Z,95961.81
2022-10-21T18:56:13.496Z,96002.25
2022-10-21T18:58:40.674Z,95961.91
2022-10-21T19:01:08.120Z,95993.00
2022-10-21T19:03:35.607Z,95994.53
2022-10-21T19:06:37.487Z,96008.22
2022-10-21T19:09:13.034Z,95976.09
2022-10-21T19:11:40.856Z,95961.69
2022-10-21T19:14:11.218Z,95976.75
2022-10-21T19:16:40.720Z,95949.91
2022-10-21T19:19:08.255Z,95957.41
2022-10-21T19:21:35.186Z,95981.38
2022-10-21T19:24:03.293Z,95973.47
2022-10-21T19:26:32.042Z,95973.91
2022-10-21T19:29:01.820Z,95900.22
2022-10-21T19:31:28.554Z,95914.19
2022-10-21T19:33:55.342Z,95969.31
2022-10-21T19:36:22.164Z,95974.59
2022-10-21T19:38:48.901Z,95910.78
2022-10-21T19:41:18.930Z,95953.91
2022-10-21T19:43:46.041Z,95996.19
2022-10-21T19:46:19.894Z,95952.47
2022-10-21T19:48:49.392Z,95988.47
2022-10-21T19:51:18.631Z,96000.47
2022-10-21T19:53:46.108Z,95994.09
2022-10-21T19:56:14.041Z,96000.16
2022-10-21T19:58:43.479Z,95975.50
2022-10-21T20:01:12.555Z,95999.03
2022-10-21T20:03:40.641Z,95996.84
2022-10-21T20:06:09.424Z,95953.38
2022-10-21T20:08:38.515Z,96000.28
2022-10-21T20:11:07.682Z,95975.38
2022-10-21T20:13:34.462Z,96001.16
2022-10-21T20:16:01.147Z,96015.22
2022-10-21T20:18:27.830Z,96025.13
2022-10-21T20:20:55.520Z,96006.97
2022-10-21T20:23:26.238Z,96029.69
2022-10-21T20:25:55.493Z,96030.31
2022-10-21T20:28:22.724Z,96038.25
2022-10-21T20:31:07.767Z,96026.53
2022-10-21T20:33:37.254Z,96041.41
2022-10-21T20:36:12.106Z,96036.91
2022-10-21T20:38:38.873Z,96010.03
2022-10-21T20:41:08.240Z,95998.59
2022-10-21T20:43:36.068Z,96014.75
2022-10-21T20:46:06.826Z,96012.69
2022-10-21T20:48:34.545Z,96015.31
2022-10-21T20:51:06.873Z,95997.34
2022-10-21T20:53:34.779Z,96014.00
2022-10-21T20:56:03.529Z,95990.22
2022-10-21T20:58:30.136Z,96021.59
2022-10-21T21:00:56.808Z,95996.28
2022-10-21T21:03:23.479Z,96011.66
2022-10-21T21:05:50.086Z,96016.75
2022-10-21T21:08:16.784Z,95991.72
2022-10-21T21:10:43.424Z,96039.63
2022-10-21T21:13:10.090Z,96005.38
2022-10-21T21:15:36.735Z,96006.06
2022-10-21T21:18:07.878Z,96015.72
2022-10-21T21:20:34.464Z,96037.53
2022-10-21T21:23:01.132Z,96026.09
2022-10-21T21:25:28.571Z,95955.84
2022-10-21T21:27:55.201Z,96005.16
2022-10-21T21:30:21.855Z,96028.41
2022-10-21T21:32:48.542Z,96024.66
2022-10-21T21:35:15.177Z,96023.91
2022-10-21T21:37:41.851Z,95962.25
2022-10-21T21:40:11.953Z,95984.47
2022-10-21T21:42:38.776Z,95976.22
2022-10-21T21:45:06.352Z,95989.31
2022-10-21T21:47:32.994Z,95964.53
2022-10-21T21:49:59.617Z,95974.81
2022-10-21T21:52:26.352Z,96004.31
2022-10-21T21:54:55.278Z,95943.00
2022-10-21T21:57:29.019Z,95959.94
2022-10-21T21:59:55.704Z,95967.97
2022-10-21T22:02:22.404Z,95996.00
2022-10-21T22:04:49.092Z,95987.41
2022-10-21T22:07:15.731Z,95983.56
2022-10-21T22:09:42.495Z,95957.91
2022-10-21T22:12:12.915Z,95915.13
2022-10-21T22:14:41.209Z,95971.28
2022-10-21T22:17:07.925Z,95989.97
2022-10-21T22:19:35.153Z,95951.88
2022-10-21T22:22:01.877Z,95853.50
2022-10-21T22:27:04.496Z,95965.78
2022-10-21T22:29:31.262Z,95916.34
2022-10-21T22:31:58.050Z,95926.38
2022-10-21T22:34:24.653Z,95940.34
2022-10-21T22:36:51.236Z,95942.06
2022-10-21T22:39:17.861Z,95970.59
2022-10-21T22:41:44.615Z,95950.75
2022-10-21T22:44:11.962Z,95934.69
2022-10-21T22:46:38.687Z,95922.34
2022-10-21T22:49:05.784Z,95908.25
2022-10-21T22:51:33.165Z,95971.50
2022-10-21T22:53:59.827Z,95956.41
2022-10-21T22:56:27.877Z,95993.28
2022-10-21T22:58:54.703Z,95981.59
2022-10-21T23:01:21.512Z,95949.53
2022-10-21T23:03:48.114Z,95910.38
2022-10-21T23:06:15.179Z,95958.66
2022-10-21T23:08:41.896Z,95978.16
2022-10-21T23:11:08.647Z,95999.94
2022-10-21T23:13:35.257Z,95999.19
2022-10-21T23:16:01.837Z,95973.28
2022-10-21T23:18:28.523Z,96002.44
2022-10-21T23:20:55.137Z,96019.69
2022-10-21T23:23:22.968Z,95969.44
2022-10-21T23:25:49.630Z,96001.56
2022-10-21T23:30:44.997Z,95982.66
2022-10-21T23:33:11.650Z,96011.06
2022-10-21T23:35:38.584Z,96014.28
2022-10-21T23:38:05.516Z,95944.44
2022-10-21T23:40:32.315Z,95976.63
2022-10-21T23:42:58.960Z,95970.38
2022-10-21T23:45:25.569Z,95955.19
2022-10-21T23:47:52.230Z,95959.13
2022-10-21T23:50:18.885Z,95957.19
2022-10-21T23:52:45.641Z,95983.50
2022-10-21T23:55:12.256Z,95983.31
2022-10-21T23:57:39.616Z,95962.84
